King Hill, Idaho
Current Conditions -  °F | °C
As of 12:58 AM on Sunday 26 Oct 2014 (Local Time) from KMUO Reporting Station
Broken Clouds Broken Clouds  
Wind Chill: 59°   Ceiling: 8000
Heat Index: 59°   Visibility: 10mi
Dew Point: 32°   Wind: 15mph
Humidity: 36%   Direction: 240°WSW
Pressure: 29.91"   Gusts: NA
Location:  43°N, 115.21°W
Report Text: KMUO 260658Z AUTO 24013KT 10SM BKN080 15/00 A2991 RMK AO2 SLP112 T01511000 402720051
Loading
Personal Weather Stations






























Interactive Weather Map
Tropical Storm Tracking
New forecast layout! Learn more

10-Day Weather Forecast

Advertisements
Track Severe Weather on mobile